Wetterdaten: Freitag, 18.05.2018
Datum Zeit Temp. A. Temp. A. min Temp. A. max Feuchte A. Bod.Feucht 4 Luftdruck Regen Wind Richtung Richtung Sonnenschein ET Solar Taupunkt Windchill Windben Empfang
18.05.2018 00:00 10,9 C 10,9 C 11,0 C 69 % 0 cb 1018,6 hPa 0,0 l/m 3,2 km/h (1 Bft) N 360 0 min 0,025 mm 0 W/m 5,4 C 10,9 C 8,0 km/h (2 Bft) 100,00 %
18.05.2018 00:10 10,8 C 10,8 C 10,9 C 69 % 0 cb 1018,7 hPa 0,0 l/m 3,2 km/h (1 Bft) N 360 0 min 0,000 mm 0 W/m 5,3 C 10,8 C 9,7 km/h (2 Bft) 100,00 %
18.05.2018 00:20 10,7 C 10,7 C 10,8 C 70 % 0 cb 1018,7 hPa 0,0 l/m 1,6 km/h (1 Bft) NO 45 0 min 0,000 mm 0 W/m 5,5 C 10,7 C 6,4 km/h (2 Bft) 100,00 %
18.05.2018 00:30 10,6 C 10,6 C 10,7 C 70 % 0 cb 1018,8 hPa 0,0 l/m 3,2 km/h (1 Bft) N-NO 22 0 min 0,000 mm 0 W/m 5,4 C 10,6 C 9,7 km/h (2 Bft) 100,00 %
18.05.2018 00:40 10,4 C 10,4 C 10,6 C 71 % 0 cb 1018,8 hPa 0,0 l/m 3,2 km/h (1 Bft) N 360 0 min 0,000 mm 0 W/m 5,4 C 10,4 C 9,7 km/h (2 Bft) 100,00 %
18.05.2018 00:50 10,3 C 10,3 C 10,4 C 72 % 0 cb 1018,8 hPa 0,0 l/m 3,2 km/h (1 Bft) N 360 0 min 0,000 mm 0 W/m 5,5 C 10,3 C 8,0 km/h (2 Bft) 100,00 %
18.05.2018 01:00 10,1 C 10,1 C 10,3 C 72 % 0 cb 1018,7 hPa 0,0 l/m 3,2 km/h (1 Bft) N 360 0 min 0,025 mm 0 W/m 5,3 C 10,1 C 11,3 km/h (2 Bft) 100,00 %
18.05.2018 01:10 9,9 C 9,9 C 10,1 C 73 % 0 cb 1018,6 hPa 0,0 l/m 3,2 km/h (1 Bft) N 360 0 min 0,000 mm 0 W/m 5,3 C 9,9 C 8,0 km/h (2 Bft) 100,00 %
18.05.2018 01:20 9,8 C 9,8 C 10,0 C 74 % 0 cb 1018,6 hPa 0,0 l/m 3,2 km/h (1 Bft) NO 45 0 min 0,000 mm 0 W/m 5,4 C 9,8 C 8,0 km/h (2 Bft) 100,00 %
18.05.2018 01:30 9,7 C 9,7 C 9,8 C 74 % 0 cb 1018,6 hPa 0,0 l/m 3,2 km/h (1 Bft) N 360 0 min 0,000 mm 0 W/m 5,3 C 9,7 C 9,7 km/h (2 Bft) 100,00 %
18.05.2018 01:40 9,6 C 9,6 C 9,7 C 75 % 0 cb 1018,7 hPa 0,0 l/m 1,6 km/h (1 Bft) N-NW 337 0 min 0,000 mm 0 W/m 5,4 C 9,6 C 9,7 km/h (2 Bft) 100,00 %
18.05.2018 01:50 9,4 C 9,4 C 9,6 C 76 % 0 cb 1018,7 hPa 0,0 l/m 3,2 km/h (1 Bft) N-NO 22 0 min 0,000 mm 0 W/m 5,4 C 9,4 C 11,3 km/h (2 Bft) 100,00 %
18.05.2018 02:00 9,3 C 9,3 C 9,4 C 76 % 0 cb 1018,7 hPa 0,0 l/m 3,2 km/h (1 Bft) N-NW 337 0 min 0,025 mm 0 W/m 5,3 C 9,3 C 11,3 km/h (2 Bft) 100,00 %
18.05.2018 02:10 9,2 C 9,2 C 9,3 C 77 % 0 cb 1018,7 hPa 0,0 l/m 3,2 km/h (1 Bft) N-NW 337 0 min 0,000 mm 0 W/m 5,4 C 9,2 C 11,3 km/h (2 Bft) 99,56 %
18.05.2018 02:20 9,0 C 9,0 C 9,2 C 78 % 0 cb 1018,5 hPa 0,0 l/m 3,2 km/h (1 Bft) N-NW 337 0 min 0,000 mm 0 W/m 5,4 C 9,0 C 9,7 km/h (2 Bft) 100,00 %
18.05.2018 02:30 8,9 C 8,9 C 9,0 C 78 % 0 cb 1018,4 hPa 0,0 l/m 3,2 km/h (1 Bft) N 360 0 min 0,000 mm 0 W/m 5,3 C 8,9 C 11,3 km/h (2 Bft) 100,00 %
18.05.2018 02:40 8,7 C 8,7 C 8,9 C 79 % 0 cb 1018,5 hPa 0,0 l/m 3,2 km/h (1 Bft) N 360 0 min 0,000 mm 0 W/m 5,3 C 8,7 C 9,7 km/h (2 Bft) 100,00 %
18.05.2018 02:50 8,6 C 8,6 C 8,7 C 80 % 0 cb 1018,5 hPa 0,0 l/m 3,2 km/h (1 Bft) N-NW 337 0 min 0,000 mm 0 W/m 5,3 C 8,6 C 8,0 km/h (2 Bft) 100,00 %
18.05.2018 03:00 8,4 C 8,4 C 8,6 C 81 % 0 cb 1018,4 hPa 0,0 l/m 3,2 km/h (1 Bft) N 360 0 min 0,025 mm 0 W/m 5,3 C 8,4 C 8,0 km/h (2 Bft) 100,00 %
18.05.2018 03:10 8,2 C 8,2 C 8,4 C 81 % 0 cb 1018,3 hPa 0,0 l/m 3,2 km/h (1 Bft) N 360 0 min 0,000 mm 0 W/m 5,1 C 8,2 C 11,3 km/h (2 Bft) 100,00 %
18.05.2018 03:20 8,1 C 8,1 C 8,2 C 82 % 0 cb 1018,3 hPa 0,0 l/m 3,2 km/h (1 Bft) N 360 0 min 0,000 mm 0 W/m 5,2 C 8,1 C 9,7 km/h (2 Bft) 100,00 %
18.05.2018 03:30 8,0 C 8,0 C 8,1 C 82 % 0 cb 1018,3 hPa 0,0 l/m 1,6 km/h (1 Bft) N 360 0 min 0,000 mm 0 W/m 5,1 C 8,0 C 8,0 km/h (2 Bft) 100,00 %
18.05.2018 03:40 7,9 C 7,9 C 8,0 C 83 % 0 cb 1018,4 hPa 0,0 l/m 1,6 km/h (1 Bft) N-NO 22 0 min 0,000 mm 0 W/m 5,2 C 7,9 C 8,0 km/h (2 Bft) 100,00 %
18.05.2018 03:50 7,8 C 7,7 C 7,9 C 83 % 0 cb 1018,5 hPa 0,0 l/m 3,2 km/h (1 Bft) N-NO 22 0 min 0,000 mm 0 W/m 5,1 C 7,8 C 6,4 km/h (2 Bft) 100,00 %
18.05.2018 04:00 7,6 C 7,6 C 7,7 C 84 % 0 cb 1018,4 hPa 0,0 l/m 3,2 km/h (1 Bft) N-NO 22 0 min 0,025 mm 0 W/m 5,1 C 7,6 C 8,0 km/h (2 Bft) 100,00 %
18.05.2018 04:10 7,6 C 7,6 C 7,6 C 85 % 0 cb 1018,3 hPa 0,0 l/m 3,2 km/h (1 Bft) N-NO 22 0 min 0,000 mm 0 W/m 5,2 C 7,6 C 8,0 km/h (2 Bft) 100,00 %
18.05.2018 04:20 7,5 C 7,5 C 7,6 C 85 % 0 cb 1018,3 hPa 0,0 l/m 3,2 km/h (1 Bft) N-NO 22 0 min 0,000 mm 0 W/m 5,1 C 7,5 C 8,0 km/h (2 Bft) 100,00 %
18.05.2018 04:30 7,5 C 7,4 C 7,5 C 85 % 0 cb 1018,3 hPa 0,0 l/m 4,8 km/h (1 Bft) N-NO 22 0 min 0,000 mm 0 W/m 5,1 C 7,0 C 11,3 km/h (2 Bft) 100,00 %
18.05.2018 04:40 7,4 C 7,4 C 7,5 C 85 % 0 cb 1018,3 hPa 0,0 l/m 4,8 km/h (1 Bft) N-NO 22 0 min 0,000 mm 0 W/m 5,0 C 6,9 C 9,7 km/h (2 Bft) 100,00 %
18.05.2018 04:50 7,4 C 7,4 C 7,5 C 85 % 0 cb 1018,3 hPa 0,0 l/m 4,8 km/h (1 Bft) N-NO 22 0 min 0,000 mm 0 W/m 5,0 C 6,9 C 9,7 km/h (2 Bft) 100,00 %
18.05.2018 05:00 7,3 C 7,3 C 7,4 C 86 % 0 cb 1018,3 hPa 0,0 l/m 4,8 km/h (1 Bft) N-NO 22 0 min 0,025 mm 0 W/m 5,1 C 6,8 C 12,9 km/h (3 Bft) 100,00 %
18.05.2018 05:10 7,3 C 7,2 C 7,3 C 86 % 0 cb 1018,3 hPa 0,0 l/m 4,8 km/h (1 Bft) N-NO 22 0 min 0,000 mm 0 W/m 5,1 C 6,8 C 12,9 km/h (3 Bft) 100,00 %
18.05.2018 05:20 7,2 C 7,2 C 7,3 C 87 % 0 cb 1018,3 hPa 0,0 l/m 4,8 km/h (1 Bft) N-NO 22 0 min 0,000 mm 0 W/m 5,2 C 6,7 C 11,3 km/h (2 Bft) 100,00 %
18.05.2018 05:30 7,1 C 7,1 C 7,2 C 87 % 0 cb 1018,3 hPa 0,0 l/m 4,8 km/h (1 Bft) N-NO 22 0 min 0,000 mm 0 W/m 5,1 C 6,5 C 9,7 km/h (2 Bft) 100,00 %
18.05.2018 05:40 6,9 C 6,9 C 7,1 C 87 % 0 cb 1018,3 hPa 0,0 l/m 6,4 km/h (2 Bft) N-NO 22 0 min 0,000 mm 0 W/m 4,9 C 5,8 C 11,3 km/h (2 Bft) 100,00 %
18.05.2018 05:50 6,8 C 6,8 C 6,9 C 88 % 0 cb 1018,4 hPa 0,0 l/m 6,4 km/h (2 Bft) N-NO 22 0 min 0,000 mm 7 W/m 5,0 C 5,7 C 11,3 km/h (2 Bft) 100,00 %
18.05.2018 06:00 6,7 C 6,7 C 6,8 C 88 % 0 cb 1018,4 hPa 0,0 l/m 4,8 km/h (1 Bft) N-NO 22 0 min 0,000 mm 14 W/m 4,9 C 6,1 C 14,5 km/h (3 Bft) 99,12 %
18.05.2018 06:10 6,7 C 6,7 C 6,7 C 88 % 0 cb 1018,5 hPa 0,0 l/m 6,4 km/h (2 Bft) N-NO 22 0 min 0,000 mm 19 W/m 4,9 C 5,6 C 12,9 km/h (3 Bft) 100,00 %
18.05.2018 06:20 6,6 C 6,6 C 6,7 C 89 % 0 cb 1018,7 hPa 0,0 l/m 6,4 km/h (2 Bft) N-NO 22 0 min 0,000 mm 30 W/m 4,9 C 5,4 C 11,3 km/h (2 Bft) 100,00 %
18.05.2018 06:30 6,6 C 6,6 C 6,6 C 89 % 0 cb 1018,8 hPa 0,0 l/m 6,4 km/h (2 Bft) N-NO 22 0 min 0,000 mm 44 W/m 4,9 C 5,4 C 11,3 km/h (2 Bft) 94,74 %
18.05.2018 06:40 6,7 C 6,6 C 6,7 C 89 % 0 cb 1018,8 hPa 0,0 l/m 6,4 km/h (2 Bft) N-NO 22 0 min 0,000 mm 58 W/m 5,0 C 5,6 C 12,9 km/h (3 Bft) 100,00 %
18.05.2018 06:50 6,8 C 6,7 C 6,8 C 89 % 0 cb 1018,9 hPa 0,0 l/m 6,4 km/h (2 Bft) N-NO 22 0 min 0,000 mm 74 W/m 5,1 C 5,7 C 12,9 km/h (3 Bft) 100,00 %
18.05.2018 07:00 6,9 C 6,8 C 6,9 C 89 % 0 cb 1018,9 hPa 0,0 l/m 6,4 km/h (2 Bft) N-NO 22 0 min 0,025 mm 130 W/m 5,2 C 5,8 C 16,1 km/h (3 Bft) 99,56 %
18.05.2018 07:10 7,2 C 6,9 C 7,2 C 88 % 0 cb 1019,0 hPa 0,0 l/m 8,0 km/h (2 Bft) N-NO 22 0 min 0,000 mm 149 W/m 5,3 C 5,7 C 19,3 km/h (3 Bft) 100,00 %
18.05.2018 07:20 7,5 C 7,2 C 7,5 C 87 % 0 cb 1019,0 hPa 0,0 l/m 6,4 km/h (2 Bft) N-NO 22 10 min 0,000 mm 188 W/m 5,5 C 6,5 C 14,5 km/h (3 Bft) 100,00 %
18.05.2018 07:30 7,7 C 7,5 C 7,7 C 86 % 0 cb 1018,9 hPa 0,0 l/m 6,4 km/h (2 Bft) N-NO 22 10 min 0,000 mm 213 W/m 5,5 C 6,7 C 17,7 km/h (3 Bft) 100,00 %
18.05.2018 07:40 7,8 C 7,7 C 7,8 C 86 % 0 cb 1019,0 hPa 0,0 l/m 8,0 km/h (2 Bft) N-NO 22 10 min 0,000 mm 234 W/m 5,6 C 6,4 C 19,3 km/h (3 Bft) 100,00 %
18.05.2018 07:50 7,9 C 7,8 C 7,9 C 85 % 0 cb 1019,1 hPa 0,0 l/m 8,0 km/h (2 Bft) N-NO 22 10 min 0,000 mm 260 W/m 5,5 C 6,5 C 16,1 km/h (3 Bft) 98,68 %
18.05.2018 08:00 8,3 C 8,0 C 8,3 C 85 % 0 cb 1019,2 hPa 0,0 l/m 6,4 km/h (2 Bft) N-NO 22 10 min 0,102 mm 283 W/m 5,9 C 7,4 C 16,1 km/h (3 Bft) 100,00 %
18.05.2018 08:10 8,6 C 8,3 C 8,6 C 84 % 0 cb 1019,2 hPa 0,0 l/m 6,4 km/h (2 Bft) N-NO 22 10 min 0,000 mm 260 W/m 6,1 C 7,8 C 16,1 km/h (3 Bft) 99,56 %
18.05.2018 08:20 8,7 C 8,5 C 8,7 C 84 % 0 cb 1019,2 hPa 0,0 l/m 4,8 km/h (1 Bft) N-NO 22 10 min 0,000 mm 290 W/m 6,2 C 8,3 C 14,5 km/h (3 Bft) 100,00 %
18.05.2018 08:30 9,1 C 8,7 C 9,1 C 83 % 0 cb 1019,2 hPa 0,0 l/m 4,8 km/h (1 Bft) N-NO 22 10 min 0,000 mm 297 W/m 6,4 C 8,8 C 9,7 km/h (2 Bft) 100,00 %
18.05.2018 08:40 9,4 C 9,1 C 9,4 C 81 % 0 cb 1019,3 hPa 0,0 l/m 3,2 km/h (1 Bft) NO 45 10 min 0,000 mm 396 W/m 6,3 C 9,4 C 9,7 km/h (2 Bft) 99,12 %
18.05.2018 08:50 9,6 C 9,4 C 9,6 C 81 % 0 cb 1019,4 hPa 0,0 l/m 6,4 km/h (2 Bft) NO 45 10 min 0,000 mm 425 W/m 6,5 C 8,9 C 14,5 km/h (3 Bft) 100,00 %
18.05.2018 09:00 10,1 C 9,6 C 10,1 C 81 % 0 cb 1019,4 hPa 0,0 l/m 4,8 km/h (1 Bft) NO 45 10 min 0,152 mm 478 W/m 7,0 C 10,1 C 11,3 km/h (2 Bft) 100,00 %
18.05.2018 09:10 10,7 C 10,2 C 10,7 C 79 % 0 cb 1019,4 hPa 0,0 l/m 4,8 km/h (1 Bft) O-NO 67 10 min 0,000 mm 492 W/m 7,2 C 10,7 C 12,9 km/h (3 Bft) 100,00 %
18.05.2018 09:20 11,3 C 10,7 C 11,3 C 76 % 0 cb 1019,4 hPa 0,0 l/m 3,2 km/h (1 Bft) O-NO 67 10 min 0,000 mm 490 W/m 7,2 C 11,3 C 9,7 km/h (2 Bft) 100,00 %
18.05.2018 09:30 11,3 C 11,3 C 11,4 C 75 % 0 cb 1019,5 hPa 0,0 l/m 4,8 km/h (1 Bft) N-NO 22 10 min 0,000 mm 503 W/m 7,0 C 11,3 C 9,7 km/h (2 Bft) 100,00 %
18.05.2018 09:40 11,3 C 11,2 C 11,3 C 75 % 0 cb 1019,5 hPa 0,0 l/m 3,2 km/h (1 Bft) N 360 10 min 0,000 mm 566 W/m 7,0 C 11,3 C 11,3 km/h (2 Bft) 100,00 %
18.05.2018 09:50 11,7 C 11,3 C 11,7 C 74 % 0 cb 1019,5 hPa 0,0 l/m 4,8 km/h (1 Bft) NO 45 10 min 0,000 mm 598 W/m 7,2 C 11,7 C 11,3 km/h (2 Bft) 100,00 %
18.05.2018 10:00 12,0 C 11,7 C 12,0 C 74 % 0 cb 1019,4 hPa 0,0 l/m 4,8 km/h (1 Bft) O-NO 67 10 min 0,254 mm 629 W/m 7,5 C 12,0 C 14,5 km/h (3 Bft) 100,00 %
18.05.2018 10:10 12,7 C 12,0 C 12,7 C 72 % 0 cb 1019,5 hPa 0,0 l/m 3,2 km/h (1 Bft) N-NO 22 10 min 0,000 mm 647 W/m 7,8 C 12,7 C 11,3 km/h (2 Bft) 100,00 %
18.05.2018 10:20 13,2 C 12,7 C 13,2 C 70 % 0 cb 1019,4 hPa 0,0 l/m 3,2 km/h (1 Bft) N-NO 22 10 min 0,000 mm 663 W/m 7,9 C 13,2 C 9,7 km/h (2 Bft) 100,00 %
18.05.2018 10:30 13,0 C 12,9 C 13,2 C 68 % 0 cb 1019,5 hPa 0,0 l/m 4,8 km/h (1 Bft) O-NO 67 10 min 0,000 mm 628 W/m 7,2 C 13,0 C 11,3 km/h (2 Bft) 100,00 %
18.05.2018 10:40 13,4 C 13,0 C 13,4 C 70 % 0 cb 1019,4 hPa 0,0 l/m 3,2 km/h (1 Bft) O-NO 67 10 min 0,000 mm 686 W/m 8,0 C 13,4 C 8,0 km/h (2 Bft) 100,00 %
18.05.2018 10:50 13,6 C 13,4 C 13,6 C 66 % 0 cb 1019,4 hPa 0,0 l/m 4,8 km/h (1 Bft) O-NO 67 10 min 0,000 mm 735 W/m 7,4 C 13,6 C 9,7 km/h (2 Bft) 100,00 %
18.05.2018 11:00 14,0 C 13,6 C 14,0 C 68 % 0 cb 1019,4 hPa 0,0 l/m 3,2 km/h (1 Bft) O 90 10 min 0,330 mm 744 W/m 8,2 C 14,0 C 12,9 km/h (3 Bft) 100,00 %
18.05.2018 11:10 14,3 C 14,0 C 14,3 C 66 % 0 cb 1019,3 hPa 0,0 l/m 4,8 km/h (1 Bft) O-NO 67 10 min 0,000 mm 754 W/m 8,0 C 14,3 C 12,9 km/h (3 Bft) 100,00 %
18.05.2018 11:20 14,4 C 14,3 C 14,4 C 64 % 0 cb 1019,2 hPa 0,0 l/m 3,2 km/h (1 Bft) N-NO 22 10 min 0,000 mm 761 W/m 7,7 C 14,4 C 9,7 km/h (2 Bft) 100,00 %
18.05.2018 11:30 15,1 C 14,4 C 15,1 C 65 % 0 cb 1019,2 hPa 0,0 l/m 3,2 km/h (1 Bft) O 90 10 min 0,000 mm 780 W/m 8,6 C 15,1 C 9,7 km/h (2 Bft) 100,00 %
18.05.2018 11:40 15,3 C 15,1 C 15,3 C 65 % 0 cb 1019,1 hPa 0,0 l/m 3,2 km/h (1 Bft) O-NO 67 10 min 0,000 mm 788 W/m 8,8 C 15,3 C 9,7 km/h (2 Bft) 99,56 %
18.05.2018 11:50 15,7 C 15,3 C 15,7 C 64 % 0 cb 1019,0 hPa 0,0 l/m 4,8 km/h (1 Bft) O-NO 67 10 min 0,000 mm 810 W/m 8,9 C 15,7 C 12,9 km/h (3 Bft) 100,00 %
18.05.2018 12:00 15,7 C 15,7 C 15,8 C 62 % 0 cb 1019,1 hPa 0,0 l/m 6,4 km/h (2 Bft) N 360 10 min 0,432 mm 830 W/m 8,4 C 15,7 C 14,5 km/h (3 Bft) 100,00 %
18.05.2018 12:10 15,7 C 15,6 C 15,7 C 64 % 0 cb 1019,0 hPa 0,0 l/m 4,8 km/h (1 Bft) NO 45 10 min 0,000 mm 835 W/m 8,9 C 15,7 C 12,9 km/h (3 Bft) 100,00 %
18.05.2018 12:20 15,9 C 15,7 C 15,9 C 61 % 0 cb 1019,0 hPa 0,0 l/m 4,8 km/h (1 Bft) N-NO 22 10 min 0,000 mm 854 W/m 8,4 C 15,9 C 11,3 km/h (2 Bft) 100,00 %
18.05.2018 12:30 16,3 C 15,9 C 16,3 C 59 % 0 cb 1019,0 hPa 0,0 l/m 4,8 km/h (1 Bft) S-SO 157 10 min 0,000 mm 853 W/m 8,3 C 16,3 C 12,9 km/h (3 Bft) 100,00 %
18.05.2018 12:40 16,3 C 16,3 C 16,3 C 59 % 0 cb 1018,9 hPa 0,0 l/m 4,8 km/h (1 Bft) N-NO 22 10 min 0,000 mm 849 W/m 8,3 C 16,3 C 9,7 km/h (2 Bft) 100,00 %
18.05.2018 12:50 16,6 C 16,3 C 16,6 C 59 % 0 cb 1018,8 hPa 0,0 l/m 3,2 km/h (1 Bft) O 90 10 min 0,000 mm 856 W/m 8,6 C 16,6 C 11,3 km/h (2 Bft) 100,00 %
18.05.2018 13:00 17,3 C 16,6 C 17,3 C 60 % 0 cb 1018,8 hPa 0,0 l/m 3,2 km/h (1 Bft) O 90 10 min 0,457 mm 870 W/m 9,5 C 17,3 C 12,9 km/h (3 Bft) 100,00 %
18.05.2018 13:10 17,4 C 17,3 C 17,4 C 57 % 0 cb 1018,8 hPa 0,0 l/m 4,8 km/h (1 Bft) O-NO 67 10 min 0,000 mm 870 W/m 8,8 C 17,4 C 14,5 km/h (3 Bft) 100,00 %
18.05.2018 13:20 17,7 C 17,3 C 17,7 C 58 % 0 cb 1018,7 hPa 0,0 l/m 4,8 km/h (1 Bft) SO 135 10 min 0,000 mm 874 W/m 9,3 C 17,7 C 12,9 km/h (3 Bft) 100,00 %
18.05.2018 13:30 17,7 C 17,7 C 17,7 C 53 % 0 cb 1018,5 hPa 0,0 l/m 4,8 km/h (1 Bft) NO 45 10 min 0,000 mm 884 W/m 8,0 C 17,7 C 12,9 km/h (3 Bft) 100,00 %
18.05.2018 13:40 17,8 C 17,6 C 17,8 C 59 % 0 cb 1018,5 hPa 0,0 l/m 4,8 km/h (1 Bft) S-SO 157 10 min 0,000 mm 868 W/m 9,7 C 17,8 C 11,3 km/h (2 Bft) 100,00 %
18.05.2018 13:50 18,0 C 17,8 C 18,1 C 58 % 0 cb 1018,5 hPa 0,0 l/m 4,8 km/h (1 Bft) O-NO 67 10 min 0,000 mm 896 W/m 9,6 C 18,0 C 14,5 km/h (3 Bft) 100,00 %
18.05.2018 14:00 18,3 C 18,0 C 18,3 C 55 % 0 cb 1018,4 hPa 0,0 l/m 3,2 km/h (1 Bft) O-NO 67 10 min 0,508 mm 907 W/m 9,1 C 18,3 C 9,7 km/h (2 Bft) 100,00 %
18.05.2018 14:10 18,8 C 18,3 C 18,8 C 52 % 0 cb 1018,4 hPa 0,0 l/m 3,2 km/h (1 Bft) S 180 10 min 0,000 mm 889 W/m 8,7 C 18,8 C 8,0 km/h (2 Bft) 100,00 %
18.05.2018 14:20 18,7 C 18,7 C 18,8 C 52 % 0 cb 1018,2 hPa 0,0 l/m 3,2 km/h (1 Bft) N-NW 337 10 min 0,000 mm 893 W/m 8,6 C 18,7 C 11,3 km/h (2 Bft) 100,00 %
18.05.2018 14:30 18,6 C 18,6 C 18,8 C 52 % 0 cb 1018,2 hPa 0,0 l/m 3,2 km/h (1 Bft) N-NO 22 10 min 0,000 mm 867 W/m 8,5 C 18,6 C 9,7 km/h (2 Bft) 99,56 %
18.05.2018 14:40 18,3 C 18,3 C 18,6 C 50 % 0 cb 1018,1 hPa 0,0 l/m 4,8 km/h (1 Bft) O 90 10 min 0,000 mm 874 W/m 7,7 C 18,3 C 14,5 km/h (3 Bft) 100,00 %
18.05.2018 14:50 18,7 C 18,3 C 18,7 C 55 % 0 cb 1018,0 hPa 0,0 l/m 1,6 km/h (1 Bft) N 360 10 min 0,000 mm 853 W/m 9,5 C 18,7 C 8,0 km/h (2 Bft) 100,00 %
18.05.2018 15:00 19,4 C 18,7 C 19,4 C 50 % 0 cb 1018,0 hPa 0,0 l/m 3,2 km/h (1 Bft) SO 135 10 min 0,483 mm 860 W/m 8,7 C 19,4 C 6,4 km/h (2 Bft) 100,00 %
18.05.2018 15:10 19,4 C 19,4 C 19,6 C 50 % 0 cb 1018,0 hPa 0,0 l/m 3,2 km/h (1 Bft) NW 315 10 min 0,000 mm 856 W/m 8,7 C 19,4 C 9,7 km/h (2 Bft) 100,00 %
18.05.2018 15:20 19,3 C 19,2 C 19,4 C 53 % 0 cb 1017,9 hPa 0,0 l/m 3,2 km/h (1 Bft) O-SO 112 10 min 0,000 mm 805 W/m 9,5 C 19,3 C 9,7 km/h (2 Bft) 100,00 %
18.05.2018 15:30 19,7 C 19,3 C 19,7 C 51 % 0 cb 1017,8 hPa 0,0 l/m 3,2 km/h (1 Bft) SO 135 10 min 0,000 mm 795 W/m 9,3 C 19,7 C 11,3 km/h (2 Bft) 99,56 %
18.05.2018 15:40 19,6 C 19,6 C 19,7 C 49 % 0 cb 1017,7 hPa 0,0 l/m 4,8 km/h (1 Bft) N 360 10 min 0,000 mm 779 W/m 8,6 C 19,6 C 14,5 km/h (3 Bft) 100,00 %
18.05.2018 15:50 19,4 C 19,3 C 19,6 C 56 % 0 cb 1017,7 hPa 0,0 l/m 3,2 km/h (1 Bft) NO 45 10 min 0,000 mm 786 W/m 10,4 C 19,4 C 14,5 km/h (3 Bft) 100,00 %
18.05.2018 16:00 19,3 C 19,3 C 19,6 C 50 % 0 cb 1017,6 hPa 0,0 l/m 4,8 km/h (1 Bft) N 360 10 min 0,432 mm 770 W/m 8,6 C 19,3 C 11,3 km/h (2 Bft) 100,00 %
18.05.2018 16:10 19,0 C 19,0 C 19,3 C 52 % 0 cb 1017,6 hPa 0,0 l/m 6,4 km/h (2 Bft) N-NW 337 10 min 0,000 mm 738 W/m 8,9 C 19,0 C 14,5 km/h (3 Bft) 100,00 %
18.05.2018 16:20 18,8 C 18,8 C 19,1 C 50 % 0 cb 1017,6 hPa 0,0 l/m 4,8 km/h (1 Bft) N-NO 22 10 min 0,000 mm 650 W/m 8,2 C 18,8 C 12,9 km/h (3 Bft) 100,00 %
18.05.2018 16:30 18,6 C 18,5 C 18,8 C 51 % 0 cb 1017,6 hPa 0,0 l/m 4,8 km/h (1 Bft) N-NW 337 10 min 0,000 mm 533 W/m 8,3 C 18,6 C 11,3 km/h (2 Bft) 100,00 %
18.05.2018 16:40 18,8 C 18,6 C 18,8 C 52 % 0 cb 1017,6 hPa 0,0 l/m 3,2 km/h (1 Bft) N-NW 337 10 min 0,000 mm 540 W/m 8,7 C 18,8 C 12,9 km/h (3 Bft) 100,00 %
18.05.2018 16:50 18,8 C 18,8 C 18,8 C 50 % 0 cb 1017,6 hPa 0,0 l/m 6,4 km/h (2 Bft) N-NO 22 10 min 0,000 mm 564 W/m 8,2 C 18,8 C 14,5 km/h (3 Bft) 100,00 %
18.05.2018 17:00 18,8 C 18,8 C 18,9 C 49 % 0 cb 1017,5 hPa 0,0 l/m 4,8 km/h (1 Bft) N-NO 22 10 min 0,330 mm 629 W/m 7,9 C 18,8 C 12,9 km/h (3 Bft) 100,00 %
18.05.2018 17:10 18,9 C 18,8 C 18,9 C 47 % 0 cb 1017,5 hPa 0,0 l/m 4,8 km/h (1 Bft) NO 45 10 min 0,000 mm 568 W/m 7,3 C 18,9 C 11,3 km/h (2 Bft) 100,00 %
18.05.2018 17:20 18,9 C 18,9 C 19,1 C 46 % 0 cb 1017,4 hPa 0,0 l/m 3,2 km/h (1 Bft) N 360 10 min 0,000 mm 578 W/m 7,0 C 18,9 C 14,5 km/h (3 Bft) 100,00 %
18.05.2018 17:30 18,9 C 18,9 C 18,9 C 45 % 0 cb 1017,5 hPa 0,0 l/m 4,8 km/h (1 Bft) NO 45 10 min 0,000 mm 548 W/m 6,7 C 18,9 C 12,9 km/h (3 Bft) 100,00 %
18.05.2018 17:40 18,9 C 18,9 C 19,1 C 46 % 0 cb 1017,5 hPa 0,0 l/m 4,8 km/h (1 Bft) N-NO 22 10 min 0,000 mm 455 W/m 7,0 C 18,9 C 12,9 km/h (3 Bft) 100,00 %
18.05.2018 17:50 18,6 C 18,6 C 18,9 C 46 % 0 cb 1017,4 hPa 0,0 l/m 4,8 km/h (1 Bft) N-NO 22 10 min 0,000 mm 322 W/m 6,8 C 18,6 C 14,5 km/h (3 Bft) 100,00 %
18.05.2018 18:00 18,2 C 18,2 C 18,6 C 46 % 0 cb 1017,5 hPa 0,0 l/m 6,4 km/h (2 Bft) N-NO 22 10 min 0,254 mm 387 W/m 6,4 C 18,2 C 12,9 km/h (3 Bft) 100,00 %
18.05.2018 18:10 17,8 C 17,8 C 18,2 C 47 % 0 cb 1017,5 hPa 0,0 l/m 6,4 km/h (2 Bft) N-NO 22 10 min 0,000 mm 327 W/m 6,3 C 17,8 C 14,5 km/h (3 Bft) 100,00 %
18.05.2018 18:20 17,7 C 17,6 C 17,8 C 51 % 0 cb 1017,5 hPa 0,0 l/m 6,4 km/h (2 Bft) N-NO 22 10 min 0,000 mm 420 W/m 7,4 C 17,7 C 16,1 km/h (3 Bft) 100,00 %
18.05.2018 18:30 17,7 C 17,7 C 17,8 C 46 % 0 cb 1017,5 hPa 0,0 l/m 8,0 km/h (2 Bft) N-NO 22 10 min 0,000 mm 415 W/m 5,9 C 17,7 C 19,3 km/h (3 Bft) 98,68 %
18.05.2018 18:40 17,5 C 17,5 C 17,7 C 49 % 0 cb 1017,5 hPa 0,0 l/m 8,0 km/h (2 Bft) N-NO 22 10 min 0,000 mm 364 W/m 6,7 C 17,5 C 17,7 km/h (3 Bft) 100,00 %
18.05.2018 18:50 17,4 C 17,4 C 17,5 C 49 % 0 cb 1017,6 hPa 0,0 l/m 6,4 km/h (2 Bft) NO 45 10 min 0,000 mm 316 W/m 6,6 C 17,4 C 17,7 km/h (3 Bft) 100,00 %
18.05.2018 19:00 17,2 C 17,1 C 17,4 C 49 % 0 cb 1017,7 hPa 0,0 l/m 8,0 km/h (2 Bft) N-NO 22 10 min 0,229 mm 248 W/m 6,4 C 17,2 C 16,1 km/h (3 Bft) 99,56 %
18.05.2018 19:10 17,1 C 17,1 C 17,2 C 49 % 0 cb 1017,7 hPa 0,0 l/m 6,4 km/h (2 Bft) N-NO 22 10 min 0,000 mm 258 W/m 6,3 C 17,1 C 14,5 km/h (3 Bft) 100,00 %
18.05.2018 19:20 16,8 C 16,8 C 17,1 C 51 % 0 cb 1017,7 hPa 0,0 l/m 4,8 km/h (1 Bft) NO 45 10 min 0,000 mm 190 W/m 6,6 C 16,8 C 12,9 km/h (3 Bft) 100,00 %
18.05.2018 19:30 16,9 C 16,8 C 16,9 C 51 % 0 cb 1017,8 hPa 0,0 l/m 4,8 km/h (1 Bft) O-NO 67 10 min 0,000 mm 190 W/m 6,7 C 16,9 C 11,3 km/h (2 Bft) 100,00 %
18.05.2018 19:40 16,5 C 16,5 C 16,9 C 50 % 0 cb 1017,9 hPa 0,0 l/m 4,8 km/h (1 Bft) N-NO 22 0 min 0,000 mm 146 W/m 6,0 C 16,5 C 16,1 km/h (3 Bft) 100,00 %
18.05.2018 19:50 16,3 C 16,3 C 16,5 C 52 % 0 cb 1018,0 hPa 0,0 l/m 3,2 km/h (1 Bft) N-NO 22 0 min 0,000 mm 134 W/m 6,4 C 16,3 C 14,5 km/h (3 Bft) 100,00 %
18.05.2018 20:00 16,2 C 16,2 C 16,3 C 52 % 0 cb 1017,9 hPa 0,0 l/m 3,2 km/h (1 Bft) NO 45 0 min 0,127 mm 128 W/m 6,3 C 16,2 C 11,3 km/h (2 Bft) 100,00 %
18.05.2018 20:10 15,7 C 15,7 C 16,2 C 52 % 0 cb 1018,0 hPa 0,0 l/m 4,8 km/h (1 Bft) O-NO 67 0 min 0,000 mm 113 W/m 5,9 C 15,7 C 11,3 km/h (2 Bft) 100,00 %
18.05.2018 20:20 15,3 C 15,3 C 15,7 C 54 % 0 cb 1018,0 hPa 0,0 l/m 3,2 km/h (1 Bft) NO 45 0 min 0,000 mm 62 W/m 6,0 C 15,3 C 12,9 km/h (3 Bft) 100,00 %
18.05.2018 20:30 14,9 C 14,9 C 15,3 C 54 % 0 cb 1018,0 hPa 0,0 l/m 3,2 km/h (1 Bft) NO 45 0 min 0,000 mm 53 W/m 5,7 C 14,9 C 8,0 km/h (2 Bft) 100,00 %
18.05.2018 20:40 14,5 C 14,5 C 14,9 C 56 % 0 cb 1018,0 hPa 0,0 l/m 4,8 km/h (1 Bft) NO 45 0 min 0,000 mm 37 W/m 5,8 C 14,5 C 14,5 km/h (3 Bft) 100,00 %
18.05.2018 20:50 14,2 C 14,2 C 14,5 C 58 % 0 cb 1018,1 hPa 0,0 l/m 3,2 km/h (1 Bft) NO 45 0 min 0,000 mm 23 W/m 6,1 C 14,2 C 11,3 km/h (2 Bft) 100,00 %
18.05.2018 21:00 13,8 C 13,8 C 14,1 C 59 % 0 cb 1018,2 hPa 0,0 l/m 4,8 km/h (1 Bft) N-NO 22 0 min 0,051 mm 16 W/m 5,9 C 13,8 C 12,9 km/h (3 Bft) 100,00 %
18.05.2018 21:10 13,4 C 13,4 C 13,8 C 60 % 0 cb 1018,3 hPa 0,0 l/m 4,8 km/h (1 Bft) N-NO 22 0 min 0,000 mm 11 W/m 5,8 C 13,4 C 12,9 km/h (3 Bft) 100,00 %
18.05.2018 21:20 13,1 C 13,1 C 13,4 C 61 % 0 cb 1018,3 hPa 0,0 l/m 4,8 km/h (1 Bft) N-NO 22 0 min 0,000 mm 5 W/m 5,8 C 13,1 C 11,3 km/h (2 Bft) 100,00 %
18.05.2018 21:30 12,8 C 12,8 C 13,1 C 62 % 0 cb 1018,4 hPa 0,0 l/m 4,8 km/h (1 Bft) N-NO 22 0 min 0,000 mm 0 W/m 5,7 C 12,8 C 11,3 km/h (2 Bft) 100,00 %
18.05.2018 21:40 12,6 C 12,6 C 12,8 C 64 % 0 cb 1018,5 hPa 0,0 l/m 4,8 km/h (1 Bft) NO 45 0 min 0,000 mm 0 W/m 6,0 C 12,6 C 14,5 km/h (3 Bft) 100,00 %
18.05.2018 21:50 12,3 C 12,3 C 12,6 C 65 % 0 cb 1018,5 hPa 0,0 l/m 4,8 km/h (1 Bft) N-NO 22 0 min 0,000 mm 0 W/m 5,9 C 12,3 C 12,9 km/h (3 Bft) 100,00 %
18.05.2018 22:00 12,1 C 12,1 C 12,3 C 66 % 0 cb 1018,6 hPa 0,0 l/m 4,8 km/h (1 Bft) NO 45 0 min 0,025 mm 0 W/m 5,9 C 12,1 C 9,7 km/h (2 Bft) 100,00 %
18.05.2018 22:10 11,8 C 11,8 C 12,1 C 67 % 0 cb 1018,6 hPa 0,0 l/m 3,2 km/h (1 Bft) N-NO 22 0 min 0,000 mm 0 W/m 5,9 C 11,8 C 9,7 km/h (2 Bft) 100,00 %
18.05.2018 22:20 11,6 C 11,6 C 11,8 C 68 % 0 cb 1018,7 hPa 0,0 l/m 4,8 km/h (1 Bft) N-NO 22 0 min 0,000 mm 0 W/m 5,9 C 11,6 C 12,9 km/h (3 Bft) 100,00 %
18.05.2018 22:30 11,3 C 11,3 C 11,6 C 69 % 0 cb 1018,8 hPa 0,0 l/m 3,2 km/h (1 Bft) N-NO 22 0 min 0,000 mm 0 W/m 5,8 C 11,3 C 11,3 km/h (2 Bft) 100,00 %
18.05.2018 22:40 11,2 C 11,2 C 11,3 C 70 % 0 cb 1018,8 hPa 0,0 l/m 3,2 km/h (1 Bft) NO 45 0 min 0,000 mm 0 W/m 5,9 C 11,2 C 12,9 km/h (3 Bft) 100,00 %
18.05.2018 22:50 10,9 C 10,9 C 11,2 C 71 % 0 cb 1018,8 hPa 0,0 l/m 1,6 km/h (1 Bft) NO 45 0 min 0,000 mm 0 W/m 5,9 C 10,9 C 6,4 km/h (2 Bft) 100,00 %
18.05.2018 23:00 10,7 C 10,7 C 10,9 C 71 % 0 cb 1018,9 hPa 0,0 l/m 1,6 km/h (1 Bft) NO 45 0 min 0,025 mm 0 W/m 5,7 C 10,7 C 4,8 km/h (1 Bft) 100,00 %
18.05.2018 23:10 10,6 C 10,6 C 10,7 C 72 % 0 cb 1018,9 hPa 0,0 l/m 1,6 km/h (1 Bft) NO 45 0 min 0,000 mm 0 W/m 5,8 C 10,6 C 4,8 km/h (1 Bft) 100,00 %
18.05.2018 23:20 10,3 C 10,3 C 10,6 C 73 % 0 cb 1018,9 hPa 0,0 l/m 1,6 km/h (1 Bft) N-NO 22 0 min 0,000 mm 0 W/m 5,7 C 10,3 C 6,4 km/h (2 Bft) 100,00 %
18.05.2018 23:30 10,1 C 10,1 C 10,3 C 73 % 0 cb 1018,9 hPa 0,0 l/m 0,0 km/h (0 Bft) N-NO 22 0 min 0,000 mm 0 W/m 5,5 C 10,1 C 3,2 km/h (1 Bft) 100,00 %
18.05.2018 23:40 9,8 C 9,8 C 10,1 C 74 % 0 cb 1019,0 hPa 0,0 l/m 1,6 km/h (1 Bft) N-NO 22 0 min 0,000 mm 0 W/m 5,4 C 9,8 C 6,4 km/h (2 Bft) 100,00 %
18.05.2018 23:50 9,7 C 9,7 C 9,8 C 75 % 0 cb 1019,1 hPa 0,0 l/m 1,6 km/h (1 Bft) N-NO 22 0 min 0,000 mm 0 W/m 5,5 C 9,7 C 6,4 km/h (2 Bft) 100,00 %
_ Min-Zeit 06:20 06:20 06:30 17:30 00:00 17:20 - 23:30 - - - - - 06:00 06:20 23:30 06:30
Minimum _ 6,6 C 6,6 C 6,6 C 45 % 0 cb 1017,4 hPa - 0,0 km/h (0 Bft) - - - - - 4,9 C 5,4 C 3,2 km/h (1 Bft) 94,74 %
_ Max-Zeit 15:30 15:40 15:30 06:20 00:00 09:30 00:00 07:10 - - 07:20 14:00 14:00 15:50 15:30 07:10 00:00
Maximum _ 19,7 C 19,6 C 19,7 C 89 % 0 cb 1019,5 hPa 0,0 l/m 8,0 km/h
N-NO (2 Bft)
- - 10 min 0,508 mm 907 W/m 10,4 C 19,7 C 19,3 km/h
N-NW (3 Bft)
100,00 %
Durchschnitt _ 12,8 C 12,7 C 13,0 C 68 % 0 cb 1018,5 hPa #0,0 l/m 4,3 km/h (1 Bft) N-NO - #12:20 h #4,366 mm 493 W/m 6,6 C 12,7 C 11,6 km/h (2 Bft) 99,91 %
Wetterstation Gdesweiler